Time;durP1;ratioP1;P1;durP2;ratioP2;P2;SDS_P1;SDS_P2;PMS_P1;PMS_P2;Temp;Humidity;BMP_temperature;BMP_pressure;BME280_temperature;BME280_humidity;BME280_pressure;Samples;Min_cycle;Max_cycle;Signal;HPM_P1;HPM_P2
2022/01/17 00:02:22;;;;;;;10.90;9.90;;;21.80;65.40;;;;;;6230404;28;89097;-71
2022/01/17 00:05:23;;;;;;;11.02;10.02;;;21.80;65.40;;;;;;6232157;28;87354;-70
2022/01/17 00:08:27;;;;;;;11.35;10.32;;;21.80;65.20;;;;;;6229680;28;88422;-71
2022/01/17 00:11:29;;;;;;;10.30;9.40;;;21.80;65.20;;;;;;6230147;28;89105;-71
2022/01/17 00:14:35;;;;;;;10.43;9.43;;;21.70;65.20;;;;;;6229917;28;90010;-71
2022/01/17 00:17:40;;;;;;;10.00;9.10;;;21.80;65.20;;;;;;6232194;28;89036;-70
2022/01/17 00:20:45;;;;;;;10.40;9.40;;;21.80;65.40;;;;;;6236296;28;87494;-71
2022/01/17 00:23:49;;;;;;;10.32;9.32;;;21.70;65.20;;;;;;6233130;28;88964;-71
2022/01/17 00:26:52;;;;;;;10.23;9.23;;;21.70;65.40;;;;;;6222426;28;89107;-70
2022/01/17 00:29:54;;;;;;;9.80;8.90;;;21.70;65.20;;;;;;6224610;28;89427;-70
2022/01/17 00:32:56;;;;;;;9.30;8.40;;;21.70;65.20;;;;;;6220544;28;89053;-70
2022/01/17 00:35:58;;;;;;;9.52;8.52;;;21.70;65.20;;;;;;6234918;28;88362;-70
2022/01/17 00:39:01;;;;;;;9.55;8.65;;;21.70;65.10;;;;;;6232102;28;89198;-71
2022/01/17 00:42:04;;;;;;;9.02;8.18;;;21.70;65.10;;;;;;6235593;28;87978;-70
2022/01/17 00:45:07;;;;;;;9.23;8.32;;;21.70;65.10;;;;;;6234023;28;90064;-70
2022/01/17 00:48:10;;;;;;;8.35;7.60;;;21.70;65.00;;;;;;6235540;28;89076;-70
2022/01/17 00:51:12;;;;;;;8.88;7.97;;;21.70;64.90;;;;;;6233909;28;89305;-71
2022/01/17 00:54:15;;;;;;;8.40;7.68;;;21.70;64.90;;;;;;6234586;28;89206;-70
2022/01/17 00:57:18;;;;;;;8.52;7.72;;;21.70;64.90;;;;;;6234788;28;89075;-71
2022/01/17 01:00:20;;;;;;;9.27;7.97;;;21.70;64.90;;;;;;6235260;28;89158;-70
2022/01/17 01:03:22;;;;;;;8.30;7.50;;;21.70;65.00;;;;;;6234588;28;89416;-70
2022/01/17 01:06:24;;;;;;;7.85;7.07;;;21.60;64.90;;;;;;6235212;28;87581;-70
2022/01/17 01:09:32;;;;;;;7.80;7.10;;;21.60;65.00;;;;;;6233528;28;89061;-70
2022/01/17 01:12:35;;;;;;;7.75;7.03;;;21.60;65.00;;;;;;6236224;28;89046;-70
2022/01/17 01:15:58;;;;;;;7.65;6.95;;;21.60;65.00;;;;;;6234730;28;90003;-69
2022/01/17 01:29:04;;;;;;;7.82;7.00;;;21.50;65.00;;;;;;6235794;28;87197;-70
2022/01/17 01:32:09;;;;;;;7.45;6.75;;;21.50;64.90;;;;;;6240672;27;89160;-70
2022/01/17 01:35:14;;;;;;;8.30;7.50;;;21.50;64.90;;;;;;6228665;28;88924;-69
2022/01/17 01:38:16;;;;;;;7.85;7.15;;;21.50;64.70;;;;;;6230923;28;88347;-71
2022/01/17 01:41:20;;;;;;;7.50;6.80;;;21.50;64.60;;;;;;6229521;28;89099;-70
2022/01/17 01:44:24;;;;;;;7.75;7.05;;;21.50;64.50;;;;;;6228981;28;89147;-70
2022/01/17 01:47:27;;;;;;;7.95;7.15;;;21.50;64.40;;;;;;6232841;28;89986;-70
2022/01/17 01:50:29;;;;;;;7.78;7.07;;;21.60;64.40;;;;;;6233895;28;89060;-71
2022/01/17 01:53:31;;;;;;;8.32;7.53;;;21.50;64.40;;;;;;6234162;28;89102;-70
2022/01/17 01:56:37;;;;;;;7.80;7.10;;;21.50;64.40;;;;;;6234196;28;89039;-70
2022/01/17 01:59:40;;;;;;;7.95;7.22;;;21.50;64.40;;;;;;6234242;28;89120;-70
2022/01/17 02:02:42;;;;;;;8.50;7.68;;;21.50;64.40;;;;;;6232477;28;88981;-70
2022/01/17 02:05:44;;;;;;;8.00;7.20;;;21.50;64.40;;;;;;6233422;28;88044;-70
2022/01/17 02:08:46;;;;;;;8.63;7.72;;;21.40;64.40;;;;;;6235110;28;88128;-69
2022/01/17 02:11:49;;;;;;;8.57;7.78;;;21.50;64.40;;;;;;6232733;28;87970;-71
2022/01/17 02:14:53;;;;;;;8.95;8.15;;;21.40;64.40;;;;;;6233402;28;87996;-70
2022/01/17 02:17:56;;;;;;;8.38;7.55;;;21.40;64.40;;;;;;6233760;28;90015;-70
2022/01/17 02:21:13;;;;;;;8.32;7.53;;;21.40;64.40;;;;;;6233530;28;88920;-71
2022/01/17 02:24:18;;;;;;;8.70;7.70;;;21.40;64.40;;;;;;6231678;28;88951;-70
2022/01/17 02:27:20;;;;;;;8.77;7.97;;;21.40;64.40;;;;;;6232316;28;89124;-70
2022/01/17 02:30:23;;;;;;;8.65;7.85;;;21.40;64.30;;;;;;6223730;28;89088;-70
2022/01/17 02:33:25;;;;;;;8.73;7.93;;;21.40;64.30;;;;;;6223003;28;89093;-71
2022/01/17 02:36:28;;;;;;;8.98;8.13;;;21.40;64.20;;;;;;6229163;28;89179;-70
2022/01/17 02:39:30;;;;;;;9.20;8.30;;;21.40;64.10;;;;;;6231914;28;88325;-70
2022/01/17 02:42:33;;;;;;;8.68;7.78;;;21.40;64.10;;;;;;6230970;28;89349;-70
2022/01/17 02:46:24;;;;;;;9.05;8.23;;;21.40;64.00;;;;;;6233327;28;89058;-70
2022/01/17 02:49:01;;;;;;;9.25;8.35;;;21.40;63.80;;;;;;6223736;28;89373;-70
2022/01/17 02:52:05;;;;;;;9.27;8.38;;;21.40;63.80;;;;;;6227454;28;89088;-70
2022/01/17 02:55:08;;;;;;;9.05;8.25;;;21.30;63.60;;;;;;6230247;28;89052;-71
2022/01/17 02:58:10;;;;;;;9.60;8.25;;;21.30;63.80;;;;;;6231749;28;89109;-70
2022/01/17 03:01:14;;;;;;;8.88;8.07;;;21.30;63.80;;;;;;6230569;28;89086;-71
2022/01/17 03:04:16;;;;;;;8.55;7.75;;;21.30;63.90;;;;;;6222159;28;89123;-70
2022/01/17 03:07:20;;;;;;;8.68;7.88;;;21.30;63.90;;;;;;6233513;28;89180;-69
2022/01/17 03:10:34;;;;;;;9.00;8.10;;;21.20;63.90;;;;;;6231822;28;88380;-70
2022/01/17 03:13:39;;;;;;;8.90;8.05;;;21.20;63.90;;;;;;6221550;28;89144;-70
2022/01/17 03:16:46;;;;;;;8.30;7.50;;;21.20;64.80;;;;;;6229942;28;87889;-70
2022/01/17 03:19:48;;;;;;;9.38;8.48;;;21.20;64.90;;;;;;6229356;28;92115;-72
2022/01/17 03:22:51;;;;;;;8.88;8.05;;;21.20;63.90;;;;;;6218553;28;89134;-70
2022/01/17 03:25:54;;;;;;;8.32;7.53;;;21.20;64.00;;;;;;6225584;28;89032;-70
2022/01/17 03:28:58;;;;;;;8.68;7.88;;;21.20;64.00;;;;;;6221918;28;89083;-70
2022/01/17 03:31:59;;;;;;;8.13;7.32;;;21.20;64.00;;;;;;6223348;28;87956;-70
2022/01/17 03:35:02;;;;;;;8.45;7.65;;;21.20;63.90;;;;;;6231086;28;88007;-71
2022/01/17 03:38:06;;;;;;;8.32;7.53;;;21.20;63.90;;;;;;6229004;28;87998;-71
2022/01/17 03:41:08;;;;;;;8.63;7.80;;;21.20;63.80;;;;;;6224187;28;88272;-71
2022/01/17 03:44:10;;;;;;;8.43;7.63;;;21.20;63.80;;;;;;6227472;28;89083;-71
2022/01/17 03:47:13;;;;;;;8.23;7.45;;;21.20;63.80;;;;;;6221266;28;89487;-71
2022/01/17 03:50:18;;;;;;;8.55;7.75;;;21.20;63.90;;;;;;6229945;28;90146;-71
2022/01/17 03:53:21;;;;;;;8.02;7.22;;;21.20;63.90;;;;;;6231020;28;89196;-70
2022/01/17 03:56:23;;;;;;;7.95;7.22;;;21.20;63.90;;;;;;6229839;28;89099;-71
2022/01/17 03:59:25;;;;;;;8.13;7.35;;;21.20;63.90;;;;;;6222158;28;89070;-72
2022/01/17 04:02:27;;;;;;;8.27;7.47;;;21.10;64.50;;;;;;6214966;28;89177;-70
2022/01/17 04:05:29;;;;;;;7.97;7.18;;;21.10;64.10;;;;;;6222853;28;88242;-71
2022/01/17 04:08:34;;;;;;;8.13;7.32;;;21.10;64.20;;;;;;6213718;28;89057;-71
2022/01/17 04:11:54;;;;;;;7.68;6.97;;;21.10;64.10;;;;;;6230333;28;88416;-71
2022/01/17 04:14:56;;;;;;;7.68;6.97;;;21.00;64.20;;;;;;6217089;28;89086;-71
2022/01/17 04:17:59;;;;;;;8.38;7.57;;;21.10;64.30;;;;;;6229650;28;88989;-71
2022/01/17 04:21:03;;;;;;;7.38;6.68;;;21.10;64.40;;;;;;6226497;28;90116;-71
2022/01/17 04:24:06;;;;;;;7.68;6.97;;;21.10;64.50;;;;;;6207644;28;89123;-69
2022/01/17 04:27:08;;;;;;;7.97;7.18;;;21.10;64.60;;;;;;6218626;28;89090;-70
2022/01/17 04:30:13;;;;;;;7.40;6.70;;;21.00;64.60;;;;;;6218488;28;89113;-71
2022/01/17 04:33:16;;;;;;;7.43;6.70;;;21.10;64.80;;;;;;6218548;28;89094;-71
2022/01/17 04:36:18;;;;;;;7.55;6.55;;;21.10;64.80;;;;;;6227597;28;89419;-70
2022/01/17 04:39:21;;;;;;;6.90;6.18;;;21.10;64.90;;;;;;6230035;28;89062;-70
2022/01/17 04:42:27;;;;;;;6.97;6.30;;;21.10;64.90;;;;;;6230369;28;88319;-71
2022/01/17 04:45:29;;;;;;;6.65;6.05;;;21.10;65.10;;;;;;6228528;28;88030;-69
2022/01/17 04:48:32;;;;;;;6.95;6.25;;;21.10;65.00;;;;;;6205005;28;89078;-70
2022/01/17 04:51:33;;;;;;;6.60;6.00;;;21.10;65.00;;;;;;6218904;28;90020;-69
2022/01/17 04:54:41;;;;;;;6.28;5.78;;;21.10;65.10;;;;;;6216608;28;89137;-71
2022/01/17 04:57:44;;;;;;;6.53;5.90;;;21.10;65.10;;;;;;6229659;28;89163;-70
2022/01/17 05:00:47;;;;;;;6.55;5.95;;;21.10;65.10;;;;;;6210757;28;89088;-71
2022/01/17 05:03:49;;;;;;;6.10;5.55;;;21.10;65.20;;;;;;6227057;28;89131;-71
2022/01/17 05:06:51;;;;;;;6.13;5.53;;;21.10;65.10;;;;;;6233859;28;89081;-71
2022/01/17 05:09:54;;;;;;;6.30;5.70;;;21.10;65.10;;;;;;6234868;28;89093;-71
2022/01/17 05:12:56;;;;;;;6.13;5.55;;;21.10;65.10;;;;;;6232687;28;87217;-70
2022/01/17 05:16:07;;;;;;;6.40;5.80;;;21.20;65.20;;;;;;6233344;28;89107;-71
2022/01/17 05:22:32;;;;;;;6.00;5.50;;;21.20;65.20;;;;;;6233560;28;88350;-71
2022/01/17 05:25:35;;;;;;;5.93;5.38;;;21.20;65.30;;;;;;6232735;28;89371;-71
2022/01/17 05:28:37;;;;;;;5.70;5.20;;;21.20;65.30;;;;;;6235003;28;89040;-71
2022/01/17 05:31:39;;;;;;;5.57;5.07;;;21.20;65.30;;;;;;6232068;28;89042;-71
2022/01/17 05:34:41;;;;;;;5.90;5.40;;;21.20;65.40;;;;;;6234851;28;89185;-70
2022/01/17 05:37:45;;;;;;;5.78;5.28;;;21.20;65.50;;;;;;6234542;28;89043;-71
2022/01/17 05:40:48;;;;;;;5.57;5.07;;;21.20;65.40;;;;;;6231548;28;89149;-71
2022/01/17 05:43:51;;;;;;;5.40;4.90;;;21.20;65.40;;;;;;6222283;28;88405;-70
2022/01/17 05:46:53;;;;;;;5.40;4.90;;;21.10;65.40;;;;;;6234383;28;89088;-71
2022/01/17 05:49:55;;;;;;;5.25;4.75;;;21.10;66.30;;;;;;6221791;28;89348;-69
2022/01/17 05:52:57;;;;;;;5.30;4.80;;;21.10;65.90;;;;;;6232222;28;90346;-71
2022/01/17 05:56:00;;;;;;;5.68;5.10;;;21.10;65.80;;;;;;6226021;28;89195;-70
2022/01/17 05:59:02;;;;;;;5.03;4.53;;;21.20;66.00;;;;;;6216666;28;89398;-71
2022/01/17 06:02:04;;;;;;;5.00;4.60;;;21.10;65.80;;;;;;6233033;28;88987;-71
2022/01/17 06:05:08;;;;;;;6.00;4.60;;;21.10;66.00;;;;;;6230322;28;89115;-70
2022/01/17 06:08:28;;;;;;;4.82;4.43;;;21.10;66.00;;;;;;6224173;28;89280;-71
2022/01/17 06:11:33;;;;;;;4.80;4.40;;;21.10;66.10;;;;;;6234150;28;89201;-71
2022/01/17 06:14:35;;;;;;;4.97;4.43;;;21.10;66.10;;;;;;6231971;28;88343;-71
2022/01/17 06:17:37;;;;;;;5.25;4.75;;;21.10;66.20;;;;;;6209086;28;89066;-71
2022/01/17 06:20:39;;;;;;;4.95;4.53;;;21.10;66.20;;;;;;6222172;28;89418;-71
2022/01/17 06:23:41;;;;;;;4.97;4.28;;;21.10;66.20;;;;;;6232541;28;89166;-71
2022/01/17 06:26:46;;;;;;;4.80;4.40;;;21.10;66.20;;;;;;6231772;28;87935;-71
2022/01/17 06:29:48;;;;;;;4.45;4.05;;;21.10;66.20;;;;;;6233667;28;89059;-71
2022/01/17 06:32:50;;;;;;;4.70;4.30;;;21.10;66.20;;;;;;6221332;28;89047;-71
2022/01/17 06:35:52;;;;;;;5.13;4.63;;;21.20;66.20;;;;;;6231991;28;89093;-71
2022/01/17 06:38:54;;;;;;;4.60;4.20;;;21.10;66.20;;;;;;6231269;28;89106;-71
2022/01/17 06:41:58;;;;;;;4.30;3.90;;;21.20;66.30;;;;;;6232818;28;88331;-69
2022/01/17 06:45:03;;;;;;;5.13;4.15;;;21.20;66.30;;;;;;6232311;28;88341;-71
2022/01/17 06:48:06;;;;;;;4.22;3.83;;;21.20;66.30;;;;;;6232261;28;89069;-72
2022/01/17 06:51:09;;;;;;;4.45;4.05;;;21.20;66.30;;;;;;6222101;28;88955;-69
2022/01/17 06:54:11;;;;;;;4.65;4.20;;;21.20;66.30;;;;;;6230395;28;90284;-71
2022/01/17 06:57:15;;;;;;;4.05;3.72;;;21.20;66.30;;;;;;6233579;28;89050;-71
2022/01/17 07:00:17;;;;;;;4.40;4.00;;;21.20;66.30;;;;;;6231797;28;89091;-71
2022/01/17 07:03:19;;;;;;;3.97;3.58;;;21.20;66.30;;;;;;6231370;28;89059;-71
2022/01/17 07:06:21;;;;;;;4.43;4.03;;;21.20;66.30;;;;;;6232258;28;87933;-71
2022/01/17 07:09:23;;;;;;;4.20;3.80;;;21.20;66.30;;;;;;6232959;28;87939;-71
2022/01/17 07:12:27;;;;;;;4.30;3.90;;;21.30;66.30;;;;;;6221579;28;89108;-70
2022/01/17 07:15:29;;;;;;;4.13;3.75;;;21.30;66.30;;;;;;6220562;28;88295;-71
2022/01/17 07:18:31;;;;;;;4.05;3.65;;;21.30;66.30;;;;;;6230580;28;89190;-71
2022/01/17 07:21:33;;;;;;;3.95;3.65;;;21.30;66.20;;;;;;6232472;28;89166;-70
2022/01/17 07:24:37;;;;;;;4.07;3.67;;;21.30;66.20;;;;;;6216535;28;89954;-70
2022/01/17 07:27:42;;;;;;;4.03;3.70;;;21.30;66.20;;;;;;6227638;28;89038;-71
2022/01/17 07:30:44;;;;;;;3.90;3.60;;;21.30;66.20;;;;;;6224928;28;89057;-72
2022/01/17 07:33:46;;;;;;;4.05;3.65;;;21.40;66.40;;;;;;6230449;28;89136;-72
2022/01/17 07:36:49;;;;;;;3.92;3.60;;;21.40;66.40;;;;;;6230187;28;89033;-71
2022/01/17 07:39:51;;;;;;;4.07;3.67;;;21.40;66.30;;;;;;6231377;28;89060;-72
2022/01/17 07:42:54;;;;;;;4.22;3.50;;;21.30;66.30;;;;;;6222116;28;89350;-71
2022/01/17 07:46:04;;;;;;;3.88;3.50;;;21.30;66.30;;;;;;6229434;28;88317;-70
2022/01/17 07:49:14;;;;;;;3.85;3.50;;;21.40;66.40;;;;;;6229520;28;89196;-71
2022/01/17 07:52:16;;;;;;;3.60;3.30;;;21.40;66.40;;;;;;6228941;28;89189;-71
2022/01/17 07:55:19;;;;;;;3.63;3.33;;;21.40;66.40;;;;;;6204920;28;90003;-71
2022/01/17 07:58:23;;;;;;;3.50;3.20;;;21.40;66.40;;;;;;6219713;28;87973;-71
2022/01/17 08:01:25;;;;;;;3.40;3.10;;;21.40;66.40;;;;;;6206289;28;88403;-71
2022/01/17 08:04:27;;;;;;;3.40;3.10;;;21.40;66.40;;;;;;6230386;28;89164;-71
2022/01/17 08:07:29;;;;;;;3.60;3.17;;;21.40;66.40;;;;;;6218477;28;89216;-72
2022/01/17 08:10:32;;;;;;;3.70;3.40;;;21.40;66.30;;;;;;6231231;28;89179;-71
2022/01/17 08:13:36;;;;;;;3.50;3.20;;;21.40;66.40;;;;;;6230245;28;89429;-71
2022/01/17 08:16:38;;;;;;;3.67;3.10;;;21.40;66.30;;;;;;6230507;28;88478;-71
2022/01/17 08:19:40;;;;;;;3.40;3.10;;;21.40;66.30;;;;;;6228459;28;89147;-72
2022/01/17 08:22:43;;;;;;;3.28;2.97;;;21.40;66.20;;;;;;6230448;28;88977;-71
2022/01/17 08:25:45;;;;;;;3.42;3.13;;;21.50;66.30;;;;;;6232377;28;90372;-71
2022/01/17 08:28:49;;;;;;;3.20;3.00;;;21.50;66.20;;;;;;6231593;28;89022;-70
2022/01/17 08:31:51;;;;;;;3.28;2.97;;;21.50;66.30;;;;;;6221910;28;89035;-72
2022/01/17 08:34:53;;;;;;;3.13;2.83;;;21.50;66.30;;;;;;6229017;28;89156;-71
2022/01/17 08:37:55;;;;;;;3.45;2.97;;;21.50;66.30;;;;;;6209574;28;89083;-71
2022/01/17 08:40:58;;;;;;;3.20;2.92;;;21.40;66.30;;;;;;6227440;28;89175;-72
2022/01/17 08:44:01;;;;;;;3.42;3.13;;;21.50;66.40;;;;;;6232912;28;89277;-71
2022/01/17 08:47:04;;;;;;;3.40;3.10;;;21.50;66.40;;;;;;6225582;28;88688;-71
2022/01/17 08:50:08;;;;;;;3.20;2.92;;;21.50;66.40;;;;;;6230263;28;89405;-71
2022/01/17 08:53:13;;;;;;;3.28;2.97;;;21.50;66.40;;;;;;6235989;28;91291;-71
2022/01/17 08:56:15;;;;;;;2.97;2.78;;;21.50;66.40;;;;;;6220680;28;90354;-71
2022/01/17 08:59:18;;;;;;;3.15;2.85;;;21.50;66.40;;;;;;6233512;28;88997;-71
2022/01/17 09:02:20;;;;;;;3.10;2.88;;;21.50;66.50;;;;;;6235584;28;89059;-70
2022/01/17 09:05:23;;;;;;;2.83;2.63;;;21.50;66.50;;;;;;6233940;28;89214;-71
2022/01/17 09:08:25;;;;;;;3.00;2.80;;;21.50;66.40;;;;;;6233723;28;89628;-71
2022/01/17 09:11:28;;;;;;;3.17;2.88;;;21.50;66.40;;;;;;6235810;28;89175;-69
2022/01/17 09:14:31;;;;;;;2.92;2.72;;;21.50;66.40;;;;;;6234032;28;89489;-71
2022/01/17 09:17:33;;;;;;;3.08;2.78;;;21.60;66.40;;;;;;6235007;28;88308;-71
2022/01/17 09:20:36;;;;;;;2.97;2.78;;;21.60;66.40;;;;;;6223404;28;89114;-71
2022/01/17 09:23:39;;;;;;;2.60;2.40;;;21.60;66.40;;;;;;6232569;28;87942;-70
2022/01/17 09:26:41;;;;;;;3.00;2.78;;;21.60;66.40;;;;;;6223743;28;89980;-72
2022/01/17 09:29:44;;;;;;;2.85;2.63;;;21.50;66.40;;;;;;6231121;28;89132;-70
2022/01/17 09:32:46;;;;;;;2.80;2.55;;;21.50;66.40;;;;;;6234154;28;88283;-71
2022/01/17 09:35:49;;;;;;;3.13;2.85;;;21.50;66.40;;;;;;6232894;28;89057;-71
2022/01/17 09:38:51;;;;;;;2.65;2.45;;;21.50;66.50;;;;;;6232651;28;89254;-71
2022/01/17 09:41:53;;;;;;;3.10;2.80;;;21.50;66.40;;;;;;6234113;28;88993;-71
2022/01/17 09:44:56;;;;;;;2.67;2.47;;;21.50;66.40;;;;;;6219073;28;89168;-71
2022/01/17 09:48:00;;;;;;;2.78;2.58;;;21.50;66.50;;;;;;6234736;28;88347;-71
2022/01/17 09:51:14;;;;;;;2.50;2.30;;;21.60;66.60;;;;;;6234346;28;87953;-69
2022/01/17 09:54:16;;;;;;;2.60;2.40;;;21.60;66.60;;;;;;6226849;28;88761;-71
2022/01/17 09:57:20;;;;;;;3.05;2.72;;;21.60;66.60;;;;;;6225375;28;89932;-70
2022/01/17 10:00:27;;;;;;;2.80;2.60;;;21.60;66.50;;;;;;6221367;28;89202;-71
2022/01/17 10:03:29;;;;;;;2.70;2.50;;;21.60;66.50;;;;;;6232688;28;89125;-71
2022/01/17 10:06:31;;;;;;;2.78;2.58;;;21.50;66.40;;;;;;6231701;28;87876;-71
2022/01/17 10:09:34;;;;;;;3.00;2.70;;;21.60;66.40;;;;;;6233770;28;89384;-72
2022/01/17 10:12:39;;;;;;;2.63;2.42;;;21.60;66.40;;;;;;6223501;28;89376;-71
2022/01/17 10:16:04;;;;;;;2.50;2.30;;;21.60;66.40;;;;;;6231819;28;89158;-71
2022/01/17 10:19:06;;;;;;;2.50;2.30;;;21.60;66.30;;;;;;6223018;28;87809;-71
2022/01/17 10:22:37;;;;;;;2.50;2.30;;;21.60;66.40;;;;;;6233669;28;90168;-71
2022/01/17 10:25:51;;;;;;;2.60;2.38;;;21.60;66.40;;;;;;6232281;28;88972;-71
2022/01/17 10:29:14;;;;;;;2.70;2.50;;;21.60;66.40;;;;;;6232307;28;89718;-70
2022/01/17 10:35:40;;;;;;;2.50;2.30;;;21.60;66.40;;;;;;6233411;28;87283;-71
2022/01/17 10:38:42;;;;;;;2.53;2.30;;;21.60;66.40;;;;;;6232646;28;89023;-72
2022/01/17 10:41:44;;;;;;;2.50;2.15;;;21.60;66.50;;;;;;6231964;28;89096;-70
2022/01/17 10:44:46;;;;;;;2.50;2.30;;;21.60;66.40;;;;;;6231661;28;89021;-71
2022/01/17 10:47:51;;;;;;;2.33;2.13;;;21.60;66.50;;;;;;6220429;28;89074;-70
2022/01/17 10:50:53;;;;;;;2.40;2.20;;;21.60;66.50;;;;;;6233859;28;88383;-69
2022/01/17 10:53:56;;;;;;;2.22;2.03;;;21.70;66.50;;;;;;6228344;28;89044;-71
2022/01/17 10:56:58;;;;;;;2.38;2.17;;;21.60;66.40;;;;;;6223956;28;88048;-71
2022/01/17 11:00:00;;;;;;;2.30;2.10;;;21.60;66.40;;;;;;6229168;28;90169;-71
2022/01/17 11:03:06;;;;;;;2.00;1.90;;;21.70;66.40;;;;;;6209605;28;89457;-71
2022/01/17 11:06:10;;;;;;;2.30;2.10;;;21.70;66.40;;;;;;6232900;28;88973;-72
2022/01/17 11:09:12;;;;;;;2.40;2.20;;;21.70;66.40;;;;;;6222327;28;89083;-71
2022/01/17 11:12:17;;;;;;;2.10;1.90;;;21.70;66.30;;;;;;6218249;28;89122;-71
2022/01/17 11:15:20;;;;;;;1.85;1.75;;;21.60;66.20;;;;;;6231765;28;89053;-70
2022/01/17 11:18:26;;;;;;;2.33;2.13;;;21.70;66.20;;;;;;6219957;28;89041;-71
2022/01/17 11:21:28;;;;;;;2.30;2.10;;;21.70;66.20;;;;;;6231629;28;88617;-72
2022/01/17 11:24:31;;;;;;;2.15;1.95;;;21.70;66.20;;;;;;6225238;28;89117;-71
2022/01/17 11:27:34;;;;;;;2.30;2.10;;;21.60;66.20;;;;;;6211820;28;87889;-70
2022/01/17 11:30:38;;;;;;;2.28;2.08;;;21.70;66.30;;;;;;6217147;28;90006;-71
2022/01/17 11:33:42;;;;;;;2.40;2.20;;;21.70;66.20;;;;;;6219160;28;89046;-70
2022/01/17 11:36:44;;;;;;;1.90;1.80;;;21.60;66.20;;;;;;6229366;28;89056;-70
2022/01/17 11:39:49;;;;;;;2.20;2.00;;;21.60;66.20;;;;;;6219480;28;87984;-72
2022/01/17 11:42:52;;;;;;;2.33;2.13;;;21.60;66.20;;;;;;6230614;28;88901;-71
2022/01/17 11:45:55;;;;;;;2.70;1.90;;;21.60;66.30;;;;;;6233088;28;89601;-71
2022/01/17 11:49:02;;;;;;;2.08;1.88;;;21.60;66.30;;;;;;6228852;28;89896;-71
2022/01/17 11:52:07;;;;;;;2.03;1.90;;;21.60;66.30;;;;;;6219250;28;88231;-71
2022/01/17 11:55:09;;;;;;;1.92;1.80;;;21.60;66.30;;;;;;6232676;28;89068;-71
2022/01/17 11:58:21;;;;;;;1.90;1.80;;;21.60;66.20;;;;;;6218499;28;89068;-71
2022/01/17 12:01:23;;;;;;;2.22;2.03;;;21.60;66.20;;;;;;6206002;28;90378;-71
2022/01/17 12:04:27;;;;;;;2.03;1.83;;;21.70;66.20;;;;;;6219088;28;89390;-71
2022/01/17 12:07:37;;;;;;;2.00;1.90;;;21.70;66.20;;;;;;6231124;28;88369;-70
2022/01/17 12:10:42;;;;;;;2.20;2.00;;;21.70;66.20;;;;;;6217580;28;89201;-71
2022/01/17 12:13:45;;;;;;;2.20;2.00;;;21.70;66.20;;;;;;6231310;28;89081;-72
2022/01/17 12:16:47;;;;;;;1.90;1.80;;;21.70;66.20;;;;;;6218289;28;87871;-70
2022/01/17 12:20:19;;;;;;;2.05;1.85;;;21.70;66.20;;;;;;6223275;28;89082;-72
2022/01/17 12:23:26;;;;;;;1.90;1.80;;;21.70;66.20;;;;;;6228689;28;87684;-71
2022/01/17 12:26:29;;;;;;;1.88;1.77;;;21.70;66.20;;;;;;6217436;28;88070;-71
2022/01/17 12:29:37;;;;;;;2.00;1.80;;;21.70;66.20;;;;;;6231916;28;89148;-71
2022/01/17 12:32:52;;;;;;;1.98;1.88;;;21.70;66.20;;;;;;6223665;28;90006;-71
2022/01/17 12:35:57;;;;;;;1.90;1.80;;;21.70;66.30;;;;;;6213978;28;89027;-70
2022/01/17 12:39:11;;;;;;;1.98;1.83;;;21.70;66.20;;;;;;6231128;28;89396;-71
2022/01/17 12:42:13;;;;;;;1.92;1.83;;;21.70;66.20;;;;;;6223798;28;87924;-72
2022/01/17 12:45:19;;;;;;;2.22;2.00;;;21.70;66.30;;;;;;6231502;28;89134;-73
2022/01/17 12:48:23;;;;;;;2.08;1.95;;;21.70;66.20;;;;;;6229923;28;90562;-72
2022/01/17 12:51:26;;;;;;;1.70;1.60;;;21.70;66.20;;;;;;6231729;28;89015;-70
2022/01/17 12:54:31;;;;;;;1.75;1.65;;;21.70;66.20;;;;;;6229535;28;88360;-71
2022/01/17 12:57:39;;;;;;;1.80;1.70;;;21.70;66.20;;;;;;6222406;28;87903;-72
2022/01/17 13:01:01;;;;;;;2.05;1.75;;;21.70;66.10;;;;;;6225556;28;88976;-71
2022/01/17 13:04:06;;;;;;;1.60;1.50;;;21.70;66.10;;;;;;6229795;28;89988;-71
2022/01/17 13:07:10;;;;;;;1.70;1.60;;;21.70;66.10;;;;;;6230530;28;89710;-72
2022/01/17 13:10:12;;;;;;;2.20;2.00;;;21.80;66.10;;;;;;6217718;28;89021;-71
2022/01/17 13:13:17;;;;;;;1.88;1.77;;;21.70;66.10;;;;;;6218210;28;89109;-71
2022/01/17 13:16:21;;;;;;;1.63;1.52;;;21.80;66.20;;;;;;6232434;28;89325;-70
2022/01/17 13:19:23;;;;;;;1.60;1.50;;;21.70;66.10;;;;;;6228699;28;88975;-71
2022/01/17 13:22:29;;;;;;;1.73;1.63;;;21.70;66.10;;;;;;6228950;28;89112;-70
2022/01/17 13:25:31;;;;;;;1.90;1.80;;;21.70;66.10;;;;;;6221463;28;88502;-71
2022/01/17 13:28:33;;;;;;;1.77;1.67;;;21.70;66.10;;;;;;6221282;28;89412;-71
2022/01/17 13:31:37;;;;;;;1.70;1.60;;;21.70;66.10;;;;;;6233002;28;89080;-71
2022/01/17 13:34:40;;;;;;;1.50;1.40;;;21.70;66.10;;;;;;6234276;28;89993;-71
2022/01/17 13:37:44;;;;;;;1.85;1.75;;;21.70;66.10;;;;;;6225158;28;88339;-72
2022/01/17 13:40:46;;;;;;;1.50;1.40;;;21.70;66.10;;;;;;6225498;28;89022;-70
2022/01/17 13:43:52;;;;;;;1.75;1.65;;;21.70;66.10;;;;;;6232691;28;89076;-71
2022/01/17 13:46:58;;;;;;;1.77;1.67;;;21.70;66.00;;;;;;6232760;28;87742;-71
2022/01/17 13:50:00;;;;;;;2.10;1.40;;;21.70;66.00;;;;;;6220927;28;89177;-71
2022/01/17 13:53:03;;;;;;;1.88;1.65;;;21.70;66.00;;;;;;6220320;28;89260;-71
2022/01/17 13:56:09;;;;;;;1.70;1.60;;;21.70;65.90;;;;;;6212808;28;88260;-71
2022/01/17 13:59:14;;;;;;;2.00;1.80;;;21.80;65.90;;;;;;6232387;28;89113;-72
2022/01/17 14:02:17;;;;;;;1.55;1.45;;;21.80;65.90;;;;;;6234500;28;89160;-71
2022/01/17 14:05:31;;;;;;;1.60;1.50;;;21.80;65.90;;;;;;6227214;28;88883;-71
2022/01/17 14:08:40;;;;;;;1.67;1.58;;;21.80;66.10;;;;;;6226939;28;89267;-71
2022/01/17 14:11:46;;;;;;;1.73;1.63;;;21.80;66.10;;;;;;6213234;28;89254;-72
2022/01/17 14:14:50;;;;;;;1.48;1.38;;;21.70;66.10;;;;;;6225970;28;87906;-71
2022/01/17 14:17:52;;;;;;;1.50;1.40;;;21.70;66.00;;;;;;6233903;28;89393;-71
2022/01/17 14:20:56;;;;;;;1.65;1.55;;;21.70;66.00;;;;;;6230648;28;89062;-72
2022/01/17 14:24:10;;;;;;;1.75;1.55;;;21.80;66.10;;;;;;6222926;28;89184;-71
2022/01/17 14:27:18;;;;;;;1.52;1.42;;;21.70;66.10;;;;;;6233087;28;88323;-72
2022/01/17 14:30:27;;;;;;;1.60;1.38;;;21.80;66.10;;;;;;6232454;28;89066;-72
2022/01/17 14:33:29;;;;;;;1.73;1.63;;;21.80;66.10;;;;;;6232321;28;89050;-72
2022/01/17 14:36:31;;;;;;;1.70;1.60;;;21.80;66.10;;;;;;6216574;28;90024;-71
2022/01/17 14:39:37;;;;;;;1.58;1.48;;;21.80;66.10;;;;;;6228888;28;89099;-71
2022/01/17 14:42:42;;;;;;;1.50;1.40;;;21.70;66.00;;;;;;6233552;28;88108;-70
2022/01/17 14:45:48;;;;;;;1.70;1.60;;;21.80;66.00;;;;;;6230952;28;87988;-70
2022/01/17 14:48:50;;;;;;;1.92;1.73;;;21.80;65.90;;;;;;6222271;28;89380;-71
2022/01/17 14:51:54;;;;;;;1.60;1.50;;;21.80;65.90;;;;;;6216497;28;88961;-71
2022/01/17 14:55:13;;;;;;;1.70;1.60;;;21.80;65.90;;;;;;6220203;28;89116;-71
2022/01/17 15:01:43;;;;;;;1.70;1.60;;;21.80;65.90;;;;;;6225481;28;87341;-70
2022/01/17 15:04:45;;;;;;;1.60;1.50;;;21.80;65.90;;;;;;6226388;28;89199;-71
2022/01/17 15:07:50;;;;;;;1.70;1.60;;;21.80;65.90;;;;;;6225749;28;89970;-71
2022/01/17 15:10:54;;;;;;;2.22;1.90;;;21.80;66.00;;;;;;6224057;28;89265;-71
2022/01/17 15:13:56;;;;;;;1.55;1.45;;;21.80;66.00;;;;;;6213562;28;89422;-71
2022/01/17 15:16:58;;;;;;;1.67;1.50;;;21.80;66.10;;;;;;6212930;28;89390;-71
2022/01/17 15:20:00;;;;;;;1.60;1.50;;;21.80;66.20;;;;;;6215689;28;89545;-71
2022/01/17 15:23:03;;;;;;;1.73;1.63;;;21.80;66.20;;;;;;6220295;28;89134;-71
2022/01/17 15:26:06;;;;;;;1.58;1.48;;;21.80;66.30;;;;;;6218050;28;89047;-71
2022/01/17 15:29:13;;;;;;;3.42;1.70;;;21.80;66.40;;;;;;6216931;28;88509;-70
2022/01/17 15:32:16;;;;;;;1.83;1.50;;;21.80;66.40;;;;;;6213199;28;89195;-71
2022/01/17 15:35:18;;;;;;;2.55;1.40;;;21.80;66.50;;;;;;6227723;28;90419;-72
2022/01/17 15:38:22;;;;;;;1.77;1.55;;;21.80;66.50;;;;;;6222715;28;90519;-72
2022/01/17 15:41:25;;;;;;;3.08;1.70;;;21.80;66.60;;;;;;6221663;28;89250;-72
2022/01/17 15:44:27;;;;;;;1.60;1.50;;;21.80;66.60;;;;;;6205962;28;88000;-72
2022/01/17 15:47:29;;;;;;;1.75;1.58;;;21.80;66.60;;;;;;6222764;28;89044;-72
2022/01/17 15:50:31;;;;;;;2.42;1.55;;;21.80;66.60;;;;;;6214254;28;89026;-71
2022/01/17 15:53:33;;;;;;;1.88;1.60;;;21.80;66.60;;;;;;6202335;28;89173;-71
2022/01/17 15:56:37;;;;;;;1.83;1.58;;;21.90;66.60;;;;;;6225877;28;89163;-70
2022/01/17 15:59:40;;;;;;;4.05;1.67;;;21.80;66.50;;;;;;6214181;28;88003;-71
2022/01/17 16:02:42;;;;;;;2.20;1.50;;;21.80;66.60;;;;;;6216741;28;89002;-71
2022/01/17 16:05:45;;;;;;;2.78;1.45;;;21.90;66.70;;;;;;6212370;28;89057;-73
2022/01/17 16:08:47;;;;;;;1.80;1.60;;;21.80;66.60;;;;;;6224617;28;89941;-72
2022/01/17 16:11:50;;;;;;;2.25;1.52;;;21.90;66.80;;;;;;6227125;28;89093;-71
2022/01/17 16:14:52;;;;;;;1.60;1.50;;;21.80;66.60;;;;;;6231567;28;87240;-71
2022/01/17 16:17:54;;;;;;;2.17;1.75;;;21.80;67.60;;;;;;6231730;28;89019;-71